Index of /wp-content/uploads/2022/06

 NameLast modifiedSizeDescription

 Parent Directory   -  
 TeralintasGlobalTrac..>2026-05-02 19:17 52M 
 TeralintasGlobalTrac..>2026-05-02 19:17 21M 
 bootvideo.mp4.sorry 2026-05-02 19:17 297K 
 Render-1080p.gif.sorry 2026-05-01 11:17 80M 
 yanmar-logo.webp.sorry 2026-05-01 11:17 30K 
 yanmar-logo-1536x301..>2026-05-01 11:17 42K 
 yanmar-logo-768x151...>2026-05-01 11:17 21K 
 yanmar-logo-300x59.w..>2026-05-01 11:17 9.2K 
 yanmar-logo-150x150...>2026-05-01 11:17 8.4K 
 weintek_logo_snipped..>2026-05-01 11:17 54K 
 weintek_logo_snipped..>2026-05-01 11:17 30K 
 weintek_logo_snipped..>2026-05-01 11:17 11K 
 weintek_logo_snipped..>2026-05-01 11:17 12K 
 weintek_logo_snipped..>2026-05-01 11:17 54K 
 weintek_cMTX.jpg.sorry 2026-05-01 11:17 192K 
 weintek_cMTX-1536x55..>2026-05-01 11:17 63K 
 weintek_cMTX-2-150x1..>2026-05-01 11:17 6.5K 
 weintek_cMTX-1.jpg.s..>2026-05-01 11:17 192K 
 weintek_cMTX-1-300x2..>2026-05-01 11:17 13K 
 voyageresize3.jpg.sorry2026-05-01 11:17 1.2M 
 voyageresize3-1536x8..>2026-05-01 11:17 276K 
 voyageresize3-768x42..>2026-05-01 11:17 105K 
 voyageresize3-300x16..>2026-05-01 11:17 25K 
 targetandAcutalRoute..>2026-05-01 11:17 97K 
 yanmar-logo-1024x201..>2026-05-01 11:17 28K 
 weintek_logo_snipped..>2026-05-01 11:17 10K 
 weintek_logo_snipped..>2026-05-01 11:17 21K 
 weintek_logo_snipped..>2026-05-01 11:17 16K 
 weintek_logo_snipped..>2026-05-01 11:17 12K 
 weintek_logo_snipped..>2026-05-01 11:17 13K 
 weintek_logo_snipped..>2026-05-01 11:17 13K 
 weintek_logo_snipped..>2026-05-01 11:17 12K 
 weintek_logo_snipped..>2026-05-01 11:17 21K 
 weintek_logo_snipped..>2026-05-01 11:17 12K 
 weintek_cMTX-1024x36..>2026-05-01 11:17 35K 
 weintek_cMTX-768x276..>2026-05-01 11:17 23K 
 weintek_cMTX-300x108..>2026-05-01 11:17 7.1K 
 weintek_cMTX-150x150..>2026-05-01 11:17 6.8K 
 weintek_cMTX-2.jpg.s..>2026-05-01 11:17 103K 
 weintek_cMTX-2-300x2..>2026-05-01 11:17 12K 
 weintek_cMTX-1-150x1..>2026-05-01 11:17 6.6K 
 voyageresize3-1024x5..>2026-05-01 11:17 157K 
 voyageresize3-150x15..>2026-05-01 11:17 15K 
 voyagereport4.jpg.sorry2026-05-01 11:17 182K 
 voyagereport4-768x40..>2026-05-01 11:17 106K 
 voyagereport4-300x15..>2026-05-01 11:17 26K 
 voyagereport4-150x15..>2026-05-01 11:17 16K 
 targetandAcutalRoute..>2026-05-01 11:17 323K 
 targetandAcutalRoute..>2026-05-01 11:17 166K 
 targetandAcutalRoute..>2026-05-01 11:17 109K 
 targetandAcutalRoute..>2026-05-01 11:17 26K 
 targetandAcutalRoute..>2026-05-01 11:17 16K 
 targetandAcutalRoute..>2026-05-01 11:17 323K 
 targetandAcutalRoute..>2026-05-01 11:17 285K 
 targetandAcutalRoute..>2026-05-01 11:17 148K 
 targetandAcutalRoute..>2026-05-01 11:17 24K 
 targetandAcutalRoute..>2026-05-01 11:17 17K 
 targetandAcutalRoute..>2026-05-01 11:17 203K 
 targetandAcutalRoute..>2026-05-01 11:17 154K 
 targetandAcutalRoute..>2026-05-01 11:17 103K 
 targetandAcutalRoute..>2026-05-01 11:17 26K 
 targetandAcutalRoute..>2026-05-01 11:17 16K 
 targetandAcutalRoute..>2026-05-01 11:17 203K 
 targetandAcutalRoute..>2026-05-01 11:17 152K 
 targetandAcutalRoute..>2026-05-01 11:17 103K 
 targetandAcutalRoute..>2026-05-01 11:17 26K 
 targetandAcutalRoute..>2026-05-01 11:17 16K 
 targetandAcutalRoute..>2026-05-01 11:17 295K 
 targetandAcutalRoute..>2026-05-01 11:17 170K 
 targetandAcutalRoute..>2026-05-01 11:17 110K 
 targetandAcutalRoute..>2026-05-01 11:17 28K 
 targetandAcutalRoute..>2026-05-01 11:17 16K 
 targetandAcutalRoute..>2026-05-01 11:17 166K 
 targetandAcutalRoute..>2026-05-01 11:17 109K 
 targetandAcutalRoute..>2026-05-01 11:17 26K 
 targetandAcutalRoute..>2026-05-01 11:17 16K 
 tanker.jpg.sorry 2026-05-01 11:17 122K 
 tanker-768x597.jpg.s..>2026-05-01 11:17 102K 
 tanker-300x233.jpg.s..>2026-05-01 11:17 31K 
 tanker-150x150.jpg.s..>2026-05-01 11:17 21K 
 tanker-3.jpg.sorry 2026-05-01 11:17 154K 
 tanker-3-768x468.jpg..>2026-05-01 11:17 82K 
 tanker-3-300x183.jpg..>2026-05-01 11:17 17K 
 tanker-3-150x150.jpg..>2026-05-01 11:17 8.9K 
 tanker-2.jpg.sorry 2026-05-01 11:17 154K 
 tanker-2-768x468.jpg..>2026-05-01 11:17 82K 
 tanker-2-300x183.jpg..>2026-05-01 11:17 17K 
 tanker-2-150x150.jpg..>2026-05-01 11:17 8.9K 
 tanker-1.jpg.sorry 2026-05-01 11:17 154K 
 tanker-1-768x474.jpg..>2026-05-01 11:17 83K 
 tanker-1-300x185.jpg..>2026-05-01 11:17 17K 
 tanker-1-150x150.jpg..>2026-05-01 11:17 8.8K 
 slider_img-1.png.sorry 2026-05-01 11:17 30K 
 slider_img-1-300x184..>2026-05-01 11:17 65K 
 slider_img-1-150x150..>2026-05-01 11:17 35K 
 seaport.png.sorry 2026-05-01 11:17 6.2K 
 seaport-e16561454087..>2026-05-01 11:17 5.9K 
 seaport-300x240.png...>2026-05-01 11:17 9.4K 
 seaport-150x150.png...>2026-05-01 11:17 6.7K 
 runningHours.png.sorry 2026-05-01 11:17 28K 
 runningHours-e165606..>2026-05-01 11:17 9.1K 
 runningHours-300x266..>2026-05-01 11:17 25K 
 runningHours-150x150..>2026-05-01 11:17 12K 
 rpm.png.sorry 2026-05-01 11:17 21K 
 rpm-e1656066481639.p..>2026-05-01 11:17 12K 
 rpm-150x150.png.sorry 2026-05-01 11:17 18K 
 rolls-royce.png.sorry 2026-05-01 11:17 254K 
 rolls-royce-1024x498..>2026-05-01 11:17 226K 
 rolls-royce-768x373...>2026-05-01 11:17 145K 
 rolls-royce-300x146...>2026-05-01 11:17 35K 
 rolls-royce-150x150...>2026-05-01 11:17 21K 
 placeholder-213.png...>2026-05-01 11:17 8.3K 
 placeholder-213-1024..>2026-05-01 11:17 9.6K 
 placeholder-213-768x..>2026-05-01 11:17 7.5K 
 placeholder-213-300x..>2026-05-01 11:17 4.2K 
 placeholder-213-150x..>2026-05-01 11:17 3.5K 
 placeholder-212.png...>2026-05-01 11:17 8.3K 
 placeholder-212-1024..>2026-05-01 11:17 9.6K 
 placeholder-212-768x..>2026-05-01 11:17 7.5K 
 placeholder-212-300x..>2026-05-01 11:17 4.2K 
 placeholder-212-150x..>2026-05-01 11:17 3.5K 
 placeholder-211.png...>2026-05-01 11:17 8.3K 
 placeholder-211-1024..>2026-05-01 11:17 9.6K 
 placeholder-211-768x..>2026-05-01 11:17 7.5K 
 placeholder-211-300x..>2026-05-01 11:17 4.2K 
 placeholder-211-150x..>2026-05-01 11:17 3.5K 
 placeholder-210.png...>2026-05-01 11:17 8.3K 
 placeholder-210-1024..>2026-05-01 11:17 9.6K 
 placeholder-210-768x..>2026-05-01 11:17 7.5K 
 placeholder-210-300x..>2026-05-01 11:17 4.2K 
 placeholder-210-150x..>2026-05-01 11:17 3.5K 
 placeholder-209.png...>2026-05-01 11:17 8.3K 
 placeholder-209-1024..>2026-05-01 11:17 9.6K 
 placeholder-209-768x..>2026-05-01 11:17 7.5K 
 placeholder-209-300x..>2026-05-01 11:17 4.2K 
 placeholder-209-150x..>2026-05-01 11:17 3.5K 
 placeholder-208.png...>2026-05-01 11:17 8.3K 
 placeholder-208-1024..>2026-05-01 11:17 9.6K 
 placeholder-208-768x..>2026-05-01 11:17 7.5K 
 placeholder-208-300x..>2026-05-01 11:17 4.2K 
 placeholder-208-150x..>2026-05-01 11:17 3.5K 
 placeholder-207.png...>2026-05-01 11:17 8.3K 
 placeholder-207-1024..>2026-05-01 11:17 9.6K 
 placeholder-207-768x..>2026-05-01 11:17 7.5K 
 placeholder-207-300x..>2026-05-01 11:17 4.2K 
 placeholder-207-150x..>2026-05-01 11:17 3.5K 
 placeholder-206.png...>2026-05-01 11:17 8.3K 
 placeholder-206-1024..>2026-05-01 11:17 9.6K 
 placeholder-206-768x..>2026-05-01 11:17 7.5K 
 placeholder-206-300x..>2026-05-01 11:17 4.2K 
 placeholder-206-150x..>2026-05-01 11:17 3.5K 
 placeholder-205.png...>2026-05-01 11:17 8.3K 
 placeholder-205-1024..>2026-05-01 11:17 9.6K 
 placeholder-205-768x..>2026-05-01 11:17 7.5K 
 placeholder-205-300x..>2026-05-01 11:17 4.2K 
 placeholder-205-150x..>2026-05-01 11:17 3.5K 
 pistol-pump-fuel-160..>2026-05-01 11:17 406K 
 pistol-pump-fuel-160..>2026-05-01 11:17 266K 
 pistol-pump-fuel-160..>2026-05-01 11:17 167K 
 pistol-pump-fuel-160..>2026-05-01 11:17 40K 
 pistol-pump-fuel-160..>2026-05-01 11:17 21K 
 offshorevessel.jpg.s..>2026-05-01 11:17 100K 
 offshorevessel-768x4..>2026-05-01 11:17 61K 
 offshorevessel-300x1..>2026-05-01 11:17 14K 
 offshorevessel-150x1..>2026-05-01 11:17 8.4K 
 offshorevessel-2.jpg..>2026-05-01 11:17 100K 
 offshorevessel-2-768..>2026-05-01 11:17 56K 
 offshorevessel-2-300..>2026-05-01 11:17 13K 
 offshorevessel-2-150..>2026-05-01 11:17 8.9K 
 offshorevessel-1.jpg..>2026-05-01 11:17 100K 
 offshorevessel-1-768..>2026-05-01 11:17 57K 
 offshorevessel-1-300..>2026-05-01 11:17 14K 
 offshorevessel-1-150..>2026-05-01 11:17 8.9K 
 neuroLinkAIbigData80..>2026-05-01 11:17 103K 
 neuroLinkAIbigData80..>2026-05-01 11:17 194K 
 neuroLinkAIbigData80..>2026-05-01 11:17 50K 
 neuroLinkAIbigData80..>2026-05-01 11:17 18K 
 mtuEngine.png.sorry 2026-05-01 11:17 43K 
 mtuEngine-768x325.pn..>2026-05-01 11:17 39K 
 mtuEngine-300x127.pn..>2026-05-01 11:17 13K 
 mtuEngine-150x150.pn..>2026-05-01 11:17 8.7K 
 mtu-logo.png.sorry 2026-05-01 11:17 31K 
 mtu-logo-300x74.png...>2026-05-01 11:17 33K 
 mtu-logo-150x150.png..>2026-05-01 11:17 21K 
 mitsubishi.png.sorry 2026-05-01 11:17 53K 
 mitsubishi.jpg.sorry 2026-05-01 11:17 43K 
 mitsubishi-e16550532..>2026-05-01 11:17 17K 
 mitsubishi-e16550532..>2026-05-01 11:17 9.1K 
 mitsubishi-e16550532..>2026-05-01 11:17 6.4K 
 mitsubishi-768x563.j..>2026-05-01 11:17 45K 
 mitsubishi-300x220.j..>2026-05-01 11:17 16K 
 mitsubishi-300x73.pn..>2026-05-01 11:17 18K 
 mitsubishi-150x150.p..>2026-05-01 11:17 16K 
 mitsubishi-150x150.j..>2026-05-01 11:17 8.0K 
 mitsubishi-1.png.sorry 2026-05-01 11:17 86K 
 mitsubishi-1-300x73...>2026-05-01 11:17 26K 
 mitsubishi-1-150x150..>2026-05-01 11:17 22K 
 maintananceSchedule...>2026-05-01 11:17 373K 
 maintananceSchedule-..>2026-05-01 11:17 405K 
 maintananceSchedule-..>2026-05-01 11:17 61K 
 maintananceSchedule-..>2026-05-01 11:17 24K 
 machine_learning_120..>2026-05-01 11:17 56K 
 machine_learning_120..>2026-05-01 11:17 16K 
 machine_learning_120..>2026-05-01 11:17 9.3K 
 lngcarrier.jpg.sorry 2026-05-01 11:17 418K 
 lngcarrier-1024x533...>2026-05-01 11:17 252K 
 lngcarrier-768x399.j..>2026-05-01 11:17 137K 
 lngcarrier-300x156.j..>2026-05-01 11:17 21K 
 lngcarrier-150x150.j..>2026-05-01 11:17 11K 
 iot-application-edge..>2026-05-01 11:17 420K 
 iot-application-edge..>2026-05-01 11:17 125K 
 iot-application-edge..>2026-05-01 11:17 83K 
 iot-application-edge..>2026-05-01 11:17 21K 
 iot-application-edge..>2026-05-01 11:17 11K 
 hosting_server_5.png..>2026-05-01 11:17 2.9K 
 hosting_server_4.png..>2026-05-01 11:17 3.0K 
 hosting_server_3.png..>2026-05-01 11:17 2.8K 
 hosting_server_2.png..>2026-05-01 11:17 2.9K 
 hosting_server_1.png..>2026-05-01 11:17 3.1K 
 hopuGroup.png.sorry 2026-05-01 11:17 27K 
 hopuGroup-300x27.png..>2026-05-01 11:17 13K 
 hopuGroup-150x44.png..>2026-05-01 11:17 4.7K 
 hopuGroup-1.png.sorry 2026-05-01 11:17 27K 
 heavyMachinary1.png...>2026-05-01 11:17 12K 
 hMI.png.sorry 2026-05-01 11:17 44K 
 hMI-e1656090632373.p..>2026-05-01 11:17 8.5K 
 hMI-768x785.png.sorry 2026-05-01 11:17 60K 
 hMI-294x300.png.sorry 2026-05-01 11:17 23K 
 hMI-150x150.png.sorry 2026-05-01 11:17 12K 
 gasAndison.jpg.sorry 2026-05-01 11:17 11K 
 gasAndison-300x257.j..>2026-05-01 11:17 10K 
 gasAndison-150x150.j..>2026-05-01 11:17 5.7K 
 gasAndison-1.jpg.sorry 2026-05-01 11:17 63K 
 gasAndison-1-300x270..>2026-05-01 11:17 10K 
 gasAndison-1-150x150..>2026-05-01 11:17 5.7K 
 ezgif1.png.sorry 2026-05-01 11:17 355K 
 ezgif1-300x270.png.s..>2026-05-01 11:17 78K 
 ezgif1-150x150.png.s..>2026-05-01 11:17 30K 
 ezgif.png.sorry 2026-05-01 11:17 2.3M 
 ezgif-1536x1329.png...>2026-05-01 11:17 1.8M 
 ezgif-1024x886.png.s..>2026-05-01 11:17 935K 
 ezgif-768x664.png.sorry2026-05-01 11:17 586K 
 ezgif-300x260.png.sorry2026-05-01 11:17 124K 
 ezgif-150x150.png.sorry2026-05-01 11:17 45K 
 engineschema.jpg.sorry 2026-05-01 11:17 2.8M 
 engineschema-scaled...>2026-05-01 11:17 401K 
 engineschema-2048x13..>2026-05-01 11:17 285K 
 engineschema-1536x10..>2026-05-01 11:17 185K 
 engineschema-1024x68..>2026-05-01 11:17 101K 
 engineschema-768x512..>2026-05-01 11:17 65K 
 engineschema-300x200..>2026-05-01 11:17 16K 
 engineschema-150x150..>2026-05-01 11:17 9.4K 
 engineRoom.jpg.sorry 2026-05-01 11:17 143K 
 engineRoom-1024x685...>2026-05-01 11:17 135K 
 engineRoom-768x514.j..>2026-05-01 11:17 86K 
 engineRoom-300x201.j..>2026-05-01 11:17 19K 
 engineRoom-150x150.j..>2026-05-01 11:17 10K 
 engineManagement2.jp..>2026-05-01 11:17 318K 
 engineManagement2-sc..>2026-05-01 11:17 204K 
 engineManagement2-sc..>2026-05-01 11:17 184K 
 engineManagement2-sc..>2026-05-01 11:17 142K 
 engineManagement2-sc..>2026-05-01 11:17 75K 
 engineManagement2-sc..>2026-05-01 11:17 60K 
 engineManagement2-sc..>2026-05-01 11:17 13K 
 engineManagement2-sc..>2026-05-01 11:17 7.2K 
 engineManagement2-sc..>2026-05-01 11:17 182K 
 engineManagement2-sc..>2026-05-01 11:17 140K 
 engineManagement2-sc..>2026-05-01 11:17 74K 
 engineManagement2-sc..>2026-05-01 11:17 48K 
 engineManagement2-sc..>2026-05-01 11:17 13K 
 engineManagement2-sc..>2026-05-01 11:17 7.1K 
 engineManagement2-13..>2026-05-01 11:17 139K 
 engineManagement2-10..>2026-05-01 11:17 86K 
 engineManagement2-76..>2026-05-01 11:17 54K 
 engineManagement2-68..>2026-05-01 11:17 45K 
 engineManagement2-20..>2026-05-01 11:17 8.6K 
 engineManagement2-15..>2026-05-01 11:17 6.4K 
 engineManagement1.pn..>2026-05-01 11:17 257K 
 engineManagement1-30..>2026-05-01 11:17 105K 
 engineManagement1-15..>2026-05-01 11:17 30K 
 engineManagement1-1...>2026-05-01 11:17 247K 
 emersonCorialis-150x..>2026-05-01 11:17 6.7K 
 engineManagement1-1-..>2026-05-01 11:17 102K 
 engineManagement1-1-..>2026-05-01 11:17 30K 
 engineFuelConsump-1...>2026-05-01 11:17 65K 
 engineFuelConsump-1-..>2026-05-01 11:17 10K 
 engineFuelConsump-1-..>2026-05-01 11:17 34K 
 engineFuelConsump-1-..>2026-05-01 11:17 15K 
 emersonCorialis.jpg...>2026-05-01 11:17 47K 
 emersonCorialis-300x..>2026-05-01 11:17 12K 
 emerson.png.sorry 2026-05-01 11:17 4.9K 
 emerson-e16545274163..>2026-05-01 11:17 4.8K 
 emerson-e16545273574..>2026-05-01 11:17 8.3K 
 emerson-150x150.png...>2026-05-01 11:17 9.0K 
 dots.png.sorry 2026-05-01 11:17 2.5K 
 dots-150x150.png.sorry 2026-05-01 11:17 4.3K 
 custom-seperator.png..>2026-05-01 11:17 3.5K 
 cumminEngine.png.sorry 2026-05-01 11:17 80K 
 cumminEngine-e165609..>2026-05-01 11:17 19K 
 cumminEngine-e165609..>2026-05-01 11:17 19K 
 cumminEngine-e165609..>2026-05-01 11:17 23K 
 cumminEngine-e165609..>2026-05-01 11:17 19K 
 cumminEngine-e165609..>2026-05-01 11:17 25K 
 cumminEngine-e165609..>2026-05-01 11:17 19K 
 cumminEngine-e165609..>2026-05-01 11:17 31K 
 cumminEngine-e165609..>2026-05-01 11:17 18K 
 cumminEngine-e165609..>2026-05-01 11:17 41K 
 cumminEngine-e165609..>2026-05-01 11:17 38K 
 cumminEngine-e165609..>2026-05-01 11:17 17K 
 cumminEngine-768x797..>2026-05-01 11:17 96K 
 cumminEngine-289x300..>2026-05-01 11:17 33K 
 cumminEngine-150x150..>2026-05-01 11:17 16K 
 cummin.jpg.sorry 2026-05-01 11:17 165K 
 cummin-768x798.jpg.s..>2026-05-01 11:17 57K 
 cummin-289x300.jpg.s..>2026-05-01 11:17 19K 
 cummin-150x150.jpg.s..>2026-05-01 11:17 8.6K 
 cruiseship.webp.sorry 2026-05-01 11:17 95K 
 cruiseship.jpg.png.s..>2026-05-01 11:17 1.2M 
 cruiseship.jpg-1024x..>2026-05-01 11:17 942K 
 cruiseship.jpg-768x4..>2026-05-01 11:17 575K 
 cruiseship.jpg-300x1..>2026-05-01 11:17 108K 
 cruiseship.jpg-150x1..>2026-05-01 11:17 48K 
 cruiseship.jpg-1.png..>2026-05-01 11:17 1.2M 
 cruiseship.jpg-1-102..>2026-05-01 11:17 933K 
 cruiseship.jpg-1-768..>2026-05-01 11:17 568K 
 cruiseship.jpg-1-300..>2026-05-01 11:17 107K 
 cruiseship.jpg-1-150..>2026-05-01 11:17 48K 
 cruiseship-1024x768...>2026-05-01 11:17 98K 
 cruiseship-768x576.w..>2026-05-01 11:17 67K 
 cruiseship-300x225.w..>2026-05-01 11:17 17K 
 cruiseship-150x150.w..>2026-05-01 11:17 8.5K 
 counter.gif.sorry 2026-05-01 11:17 258K 
 counter-300x93.gif.s..>2026-05-01 11:17 10K 
 counter-150x150.gif...>2026-05-01 11:17 9.1K 
 containerspec.png.sorry2026-05-01 11:17 148K 
 containerspec-768x47..>2026-05-01 11:17 152K 
 containerspec-300x18..>2026-05-01 11:17 36K 
 containerspec-150x15..>2026-05-01 11:17 23K 
 containership.jpg.sorry2026-05-01 11:17 80K 
 containership-768x39..>2026-05-01 11:17 62K 
 containership-300x15..>2026-05-01 11:17 14K 
 containership-150x15..>2026-05-01 11:17 8.8K 
 containerandSmartsol..>2026-05-01 11:17 849K 
 containerandSmartsol..>2026-05-01 11:17 546K 
 containerandSmartsol..>2026-05-01 11:17 102K 
 containerandSmartsol..>2026-05-01 11:17 36K 
 containerandSmartsol..>2026-05-01 11:17 854K 
 containerandSmartsol..>2026-05-01 11:17 551K 
 containerandSmartsol..>2026-05-01 11:17 104K 
 containerandSmartsol..>2026-05-01 11:17 37K 
 container_number.png..>2026-05-01 11:17 11K 
 container_number-300..>2026-05-01 11:17 8.8K 
 container_number-150..>2026-05-01 11:17 5.0K 
 container_identifica..>2026-05-01 11:17 376K 
 container_identifica..>2026-05-01 11:17 52K 
 container_identifica..>2026-05-01 11:17 17K 
 container_identifica..>2026-05-01 11:17 10K 
 container_identifica..>2026-05-01 11:17 376K 
 container_identifica..>2026-05-01 11:17 52K 
 container_identifica..>2026-05-01 11:17 17K 
 container_identifica..>2026-05-01 11:17 10K 
 containerSeries.jpg...>2026-05-01 11:17 12K 
 containerSeries-150x..>2026-05-01 11:17 7.2K 
 containerFuelStation..>2026-05-01 11:17 157K 
 containerFuelStation..>2026-05-01 11:17 14K 
 containerFuelStation..>2026-05-01 11:17 7.2K 
 bulkCarrier.jpg.sorry 2026-05-01 11:17 72K 
 bulkCarrier-768x463...>2026-05-01 11:17 61K 
 bulkCarrier-300x181...>2026-05-01 11:17 13K 
 bulkCarrier-150x150...>2026-05-01 11:17 7.2K 
 andison.jpg.sorry 2026-05-01 11:17 101K 
 andison-768x542.jpg...>2026-05-01 11:17 46K 
 andison-300x212.jpg...>2026-05-01 11:17 13K 
 andison-150x150.jpg...>2026-05-01 11:17 7.3K 
 andison-2.jpg.sorry 2026-05-01 11:17 129K 
 andison-2-300x270.jp..>2026-05-01 11:17 14K 
 andison-2-150x150.jp..>2026-05-01 11:17 6.9K 
 andison-1.jpg.sorry 2026-05-01 11:17 101K 
 andison-1-1024x691.j..>2026-05-01 11:17 60K 
 andison-1-768x518.jp..>2026-05-01 11:17 40K 
 andison-1-300x202.jp..>2026-05-01 11:17 12K 
 andison-1-150x150.jp..>2026-05-01 11:17 7.0K 
 about-us.icon_.png.s..>2026-05-01 11:17 3.2K 
 about-us.icon-2-1.pn..>2026-05-01 11:17 3.7K 
 Voyagereport.jpg.sorry 2026-05-01 11:17 249K 
 Voyagereport-1448x20..>2026-05-01 11:17 313K 
 Voyagereport-1086x15..>2026-05-01 11:17 198K 
 Voyagereport-768x108..>2026-05-01 11:17 117K 
 Voyagereport-724x102..>2026-05-01 11:17 109K 
 Voyagereport-212x300..>2026-05-01 11:17 19K 
 Voyagereport-150x150..>2026-05-01 11:17 11K 
 VoyageResize.jpg.sorry 2026-05-01 11:17 754K 
 VoyageResize-1024x56..>2026-05-01 11:17 164K 
 VoyageResize-768x426..>2026-05-01 11:17 108K 
 VoyageResize-300x166..>2026-05-01 11:17 25K 
 VoyageResize-150x150..>2026-05-01 11:17 16K 
 TrackingAnimation.gi..>2026-05-01 11:17 3.9M 
 TrackingAnimation-76..>2026-05-01 11:17 215K 
 TrackingAnimation-30..>2026-05-01 11:17 37K 
 TrackingAnimation-15..>2026-05-01 11:17 19K 
 TeraLink512x512icon...>2026-05-01 11:17 28K 
 TeraLink512x512icon-..>2026-05-01 11:17 27K 
 TeraLink512x512icon-..>2026-05-01 11:17 13K 
 TeraLink300x300.png...>2026-05-01 11:17 16K 
 TeraLink300x300-150x..>2026-05-01 11:17 11K 
 Slider_img-5.jpeg.sorry2026-05-01 11:17 64K 
 Slider_img-5-1536x76..>2026-05-01 11:17 140K 
 Slider_img-5-1024x51..>2026-05-01 11:17 75K 
 Slider_img-5-768x384..>2026-05-01 11:17 48K 
 Slider_img-5-300x150..>2026-05-01 11:17 12K 
 Slider_img-5-150x150..>2026-05-01 11:17 7.7K 
 Render-1080p-1536x86..>2026-05-01 11:17 425K 
 Render-1080p-1024x57..>2026-05-01 11:17 161K 
 Render-1080p-768x432..>2026-05-01 11:17 85K 
 Render-1080p-300x169..>2026-05-01 11:17 13K 
 Render-1080p-150x150..>2026-05-01 11:17 7.4K 
 OCR.jpg.sorry 2026-05-01 11:17 7.4K 
 OCR.gif.sorry 2026-05-01 11:17 95K 
 OCR-e1655869067601.j..>2026-05-01 11:17 7.0K 
 OCR-e1655869067601-1..>2026-05-01 11:17 6.5K 
 OCR-1024x576.gif.sorry 2026-05-01 11:17 22K 
 OCR-768x432.gif.sorry 2026-05-01 11:17 16K 
 OCR-300x169.gif.sorry 2026-05-01 11:17 6.9K 
 OCR-150x150.jpg.sorry 2026-05-01 11:17 5.9K 
 OCR-150x150.gif.sorry 2026-05-01 11:17 5.0K 
 MarineEngine.jpg.sorry 2026-05-01 11:17 509K 
 MarineEngine-1536x75..>2026-05-01 11:17 201K 
 MarineEngine-1024x50..>2026-05-01 11:17 110K 
 MarineEngine-768x376..>2026-05-01 11:17 70K 
 MarineEngine-300x147..>2026-05-01 11:17 20K 
 MarineEngine-150x150..>2026-05-01 11:17 15K 
 Main-Background-imag..>2026-05-01 11:17 827K 
 Main-Background-imag..>2026-05-01 11:17 165K 
 Main-Background-imag..>2026-05-01 11:17 86K 
 Main-Background-imag..>2026-05-01 11:17 54K 
 Main-Background-imag..>2026-05-01 11:17 14K 
 Main-Background-imag..>2026-05-01 11:17 8.8K 
 MTU_Friedrichshafen_..>2026-05-01 11:17 41K 
 MTU_Friedrichshafen_..>2026-05-01 11:17 47K 
 MTU_Friedrichshafen_..>2026-05-01 11:17 34K 
 MTU_Friedrichshafen_..>2026-05-01 11:17 13K 
 MTU_Friedrichshafen_..>2026-05-01 11:17 8.5K 
 IoTapplication.jpg.s..>2026-05-01 11:17 237K 
 IoTapplication-1024x..>2026-05-01 11:17 94K 
 IoTapplication-768x4..>2026-05-01 11:17 59K 
 IoTapplication-300x1..>2026-05-01 11:17 13K 
 IoTapplication-150x1..>2026-05-01 11:17 7.8K 
 Caterpillar_logo-1.p..>2026-05-01 11:17 29K 
 Caterpillar_logo-1-2..>2026-05-01 11:17 30K 
 Caterpillar_logo-1-1..>2026-05-01 11:17 23K 
 Caterpillar_logo-1-1..>2026-05-01 11:17 15K 
 Caterpillar_logo-1-7..>2026-05-01 11:17 12K 
 Caterpillar_logo-1-3..>2026-05-01 11:17 5.8K 
 Caterpillar_logo-1-1..>2026-05-01 11:17 4.1K 
 Call-to-action_img-1..>2026-05-01 11:17 30K 
 Call-to-action_img-1..>2026-05-01 11:17 41K 
 Call-to-action_img-1..>2026-05-01 11:17 22K 
 Call-to-action_img-1..>2026-05-01 11:17 14K 
 Call-to-action_img-1..>2026-05-01 11:17 5.0K 
 Call-to-action_img-1..>2026-05-01 11:17 3.5K 
 Bungkering.jpg.sorry 2026-05-01 11:17 305K 
 Bungkering-1024x609...>2026-05-01 11:17 147K 
 Bungkering-768x457.j..>2026-05-01 11:17 90K 
 Bungkering-300x178.j..>2026-05-01 11:17 19K 
 Bungkering-150x150.j..>2026-05-01 11:17 10K 
 Agritech-kit_opt_Pag..>2026-05-01 11:17 1.2M 
 Agritech-kit_opt_Pag..>2026-05-01 11:17 533K 
 Agritech-kit_opt_Pag..>2026-05-01 11:17 373K 
 Agritech-kit_opt_Pag..>2026-05-01 11:17 233K 
 Agritech-kit_opt_Pag..>2026-05-01 11:17 118K 
 Agritech-kit_opt_Pag..>2026-05-01 11:17 73K 
 Agritech-kit_opt_Pag..>2026-05-01 11:17 18K 
 API.gif.sorry 2026-05-01 11:17 28K 
 Agritech-kit_opt_Pag..>2026-05-01 11:17 11K 
 API-768x336.gif.sorry 2026-05-01 11:17 40K 
 API-300x131.gif.sorry 2026-05-01 11:17 10K 
 API-150x150.gif.sorry 2026-05-01 11:17 8.5K 
 3800x730_bungkering...>2026-05-01 11:17 457K 
 3800x730_bungkering-..>2026-05-01 11:17 257K 
 3800x730_bungkering-..>2026-05-01 11:17 170K 
 3800x730_bungkering-..>2026-05-01 11:17 99K 
 3800x730_bungkering-..>2026-05-01 11:17 48K 
 3800x730_bungkering-..>2026-05-01 11:17 30K 
 3800x730_bungkering-..>2026-05-01 11:17 9.2K 
 3800x730_bungkering-..>2026-05-01 11:17 10K